sensor_id;sensor_type;location;lat;lon;timestamp;temperature;humidity
30206;DHT22;17010;51.306;3.150;2023-02-15T00:01:45;2.50;99.90
30206;DHT22;17010;51.306;3.150;2023-02-15T00:04:13;2.50;99.90
30206;DHT22;17010;51.306;3.150;2023-02-15T00:06:40;2.40;99.90
30206;DHT22;17010;51.306;3.150;2023-02-15T00:09:06;2.40;99.90
30206;DHT22;17010;51.306;3.150;2023-02-15T00:11:32;2.40;99.90
30206;DHT22;17010;51.306;3.150;2023-02-15T00:14:20;2.40;99.90
30206;DHT22;17010;51.306;3.150;2023-02-15T00:16:48;2.30;99.90
30206;DHT22;17010;51.306;3.150;2023-02-15T00:19:16;2.30;99.90
30206;DHT22;17010;51.306;3.150;2023-02-15T00:21:45;2.30;99.90
30206;DHT22;17010;51.306;3.150;2023-02-15T00:24:13;2.30;99.90
30206;DHT22;17010;51.306;3.150;2023-02-15T00:26:40;2.30;99.90
30206;DHT22;17010;51.306;3.150;2023-02-15T00:29:07;2.30;99.90
30206;DHT22;17010;51.306;3.150;2023-02-15T00:31:34;2.20;99.90
30206;DHT22;17010;51.306;3.150;2023-02-15T00:34:18;2.20;99.90
30206;DHT22;17010;51.306;3.150;2023-02-15T00:36:45;2.20;99.90
30206;DHT22;17010;51.306;3.150;2023-02-15T00:39:11;2.20;99.90
30206;DHT22;17010;51.306;3.150;2023-02-15T00:41:38;2.10;99.90
30206;DHT22;17010;51.306;3.150;2023-02-15T00:44:04;2.10;99.90
30206;DHT22;17010;51.306;3.150;2023-02-15T00:46:31;2.10;99.90
30206;DHT22;17010;51.306;3.150;2023-02-15T00:48:57;2.10;99.90
30206;DHT22;17010;51.306;3.150;2023-02-15T00:51:24;2.10;99.90
30206;DHT22;17010;51.306;3.150;2023-02-15T00:53:51;2.20;99.90
30206;DHT22;17010;51.306;3.150;2023-02-15T00:56:17;2.20;99.90
30206;DHT22;17010;51.306;3.150;2023-02-15T00:58:44;2.20;99.90
30206;DHT22;17010;51.306;3.150;2023-02-15T01:01:14;2.20;99.90
30206;DHT22;17010;51.306;3.150;2023-02-15T01:03:41;2.30;99.90
30206;DHT22;17010;51.306;3.150;2023-02-15T01:06:08;2.30;99.90
30206;DHT22;17010;51.306;3.150;2023-02-15T01:08:34;2.30;99.90
30206;DHT22;17010;51.306;3.150;2023-02-15T01:11:07;2.30;99.90
30206;DHT22;17010;51.306;3.150;2023-02-15T01:13:34;2.30;99.90
30206;DHT22;17010;51.306;3.150;2023-02-15T01:16:01;2.30;99.90
30206;DHT22;17010;51.306;3.150;2023-02-15T01:18:27;2.40;99.90
30206;DHT22;17010;51.306;3.150;2023-02-15T01:20:55;2.40;99.90
30206;DHT22;17010;51.306;3.150;2023-02-15T01:23:21;2.40;99.90
30206;DHT22;17010;51.306;3.150;2023-02-15T01:25:47;2.40;99.90
30206;DHT22;17010;51.306;3.150;2023-02-15T01:28:13;2.40;99.90
30206;DHT22;17010;51.306;3.150;2023-02-15T01:30:40;2.40;99.90
30206;DHT22;17010;51.306;3.150;2023-02-15T01:33:06;2.40;99.90
30206;DHT22;17010;51.306;3.150;2023-02-15T01:35:34;2.30;99.90
30206;DHT22;17010;51.306;3.150;2023-02-15T01:38:02;2.30;99.90
30206;DHT22;17010;51.306;3.150;2023-02-15T01:40:28;2.30;99.90
30206;DHT22;17010;51.306;3.150;2023-02-15T01:42:55;2.20;99.90
30206;DHT22;17010;51.306;3.150;2023-02-15T01:45:30;2.20;99.90
30206;DHT22;17010;51.306;3.150;2023-02-15T01:48:17;2.10;99.90
30206;DHT22;17010;51.306;3.150;2023-02-15T01:51:06;2.10;99.90
30206;DHT22;17010;51.306;3.150;2023-02-15T01:53:44;2.10;99.90
30206;DHT22;17010;51.306;3.150;2023-02-15T01:56:29;2.10;99.90
30206;DHT22;17010;51.306;3.150;2023-02-15T01:58:57;2.10;99.90
30206;DHT22;17010;51.306;3.150;2023-02-15T02:01:25;2.10;99.90
30206;DHT22;17010;51.306;3.150;2023-02-15T02:06:32;2.00;99.90
30206;DHT22;17010;51.306;3.150;2023-02-15T02:08:59;2.00;99.90
30206;DHT22;17010;51.306;3.150;2023-02-15T02:11:25;2.00;99.90
30206;DHT22;17010;51.306;3.150;2023-02-15T02:13:52;2.00;99.90
30206;DHT22;17010;51.306;3.150;2023-02-15T02:16:43;2.00;99.90
30206;DHT22;17010;51.306;3.150;2023-02-15T02:21:58;1.90;99.90
30206;DHT22;17010;51.306;3.150;2023-02-15T02:30:27;1.80;99.90
30206;DHT22;17010;51.306;3.150;2023-02-15T02:38:27;1.70;99.90
30206;DHT22;17010;51.306;3.150;2023-02-15T02:44:02;1.70;99.90
30206;DHT22;17010;51.306;3.150;2023-02-15T02:46:36;1.70;99.90
30206;DHT22;17010;51.306;3.150;2023-02-15T02:49:03;1.70;99.90
30206;DHT22;17010;51.306;3.150;2023-02-15T02:51:29;1.70;99.90
30206;DHT22;17010;51.306;3.150;2023-02-15T02:53:56;1.70;99.90
30206;DHT22;17010;51.306;3.150;2023-02-15T02:56:38;1.80;99.90
30206;DHT22;17010;51.306;3.150;2023-02-15T02:59:13;1.80;99.90
30206;DHT22;17010;51.306;3.150;2023-02-15T03:01:50;1.80;99.90
30206;DHT22;17010;51.306;3.150;2023-02-15T03:04:20;1.80;99.90
30206;DHT22;17010;51.306;3.150;2023-02-15T03:09:43;1.90;99.90
30206;DHT22;17010;51.306;3.150;2023-02-15T03:12:18;1.90;99.90
30206;DHT22;17010;51.306;3.150;2023-02-15T03:14:52;1.90;99.90
30206;DHT22;17010;51.306;3.150;2023-02-15T03:17:20;2.10;99.90
30206;DHT22;17010;51.306;3.150;2023-02-15T03:19:48;2.10;99.90
30206;DHT22;17010;51.306;3.150;2023-02-15T03:22:35;2.10;99.90
30206;DHT22;17010;51.306;3.150;2023-02-15T03:27:59;2.10;99.90
30206;DHT22;17010;51.306;3.150;2023-02-15T03:30:26;2.00;99.90
30206;DHT22;17010;51.306;3.150;2023-02-15T03:32:54;2.00;99.90
30206;DHT22;17010;51.306;3.150;2023-02-15T03:35:23;1.90;99.90
30206;DHT22;17010;51.306;3.150;2023-02-15T03:37:56;1.90;99.90
30206;DHT22;17010;51.306;3.150;2023-02-15T03:40:37;1.80;99.90
30206;DHT22;17010;51.306;3.150;2023-02-15T03:46:35;1.80;99.90
30206;DHT22;17010;51.306;3.150;2023-02-15T03:49:10;1.80;99.90
30206;DHT22;17010;51.306;3.150;2023-02-15T03:51:40;1.80;99.90
30206;DHT22;17010;51.306;3.150;2023-02-15T03:54:34;1.80;99.90
30206;DHT22;17010;51.306;3.150;2023-02-15T04:00:03;1.80;99.90
30206;DHT22;17010;51.306;3.150;2023-02-15T04:03:12;1.80;99.90
30206;DHT22;17010;51.306;3.150;2023-02-15T04:05:43;1.80;99.90
30206;DHT22;17010;51.306;3.150;2023-02-15T04:08:10;1.90;99.90
30206;DHT22;17010;51.306;3.150;2023-02-15T04:10:36;1.80;99.90
30206;DHT22;17010;51.306;3.150;2023-02-15T04:13:31;1.90;99.90
30206;DHT22;17010;51.306;3.150;2023-02-15T04:15:58;1.80;99.90
30206;DHT22;17010;51.306;3.150;2023-02-15T04:18:35;1.80;99.90
30206;DHT22;17010;51.306;3.150;2023-02-15T04:21:22;1.80;99.90
30206;DHT22;17010;51.306;3.150;2023-02-15T04:24:07;1.80;99.90
30206;DHT22;17010;51.306;3.150;2023-02-15T04:26:52;1.70;99.90
30206;DHT22;17010;51.306;3.150;2023-02-15T04:29:19;1.70;99.90
30206;DHT22;17010;51.306;3.150;2023-02-15T04:31:46;1.70;99.90
30206;DHT22;17010;51.306;3.150;2023-02-15T04:34:13;1.80;99.90
30206;DHT22;17010;51.306;3.150;2023-02-15T04:36:39;1.80;99.90
30206;DHT22;17010;51.306;3.150;2023-02-15T04:39:06;1.80;99.90
30206;DHT22;17010;51.306;3.150;2023-02-15T04:41:33;1.70;99.90
30206;DHT22;17010;51.306;3.150;2023-02-15T04:43:59;1.70;99.90
30206;DHT22;17010;51.306;3.150;2023-02-15T04:46:27;1.70;99.90
30206;DHT22;17010;51.306;3.150;2023-02-15T04:48:54;1.80;99.90
30206;DHT22;17010;51.306;3.150;2023-02-15T04:51:20;1.80;99.90
30206;DHT22;17010;51.306;3.150;2023-02-15T04:53:46;1.80;99.90
30206;DHT22;17010;51.306;3.150;2023-02-15T04:56:12;1.80;99.90
30206;DHT22;17010;51.306;3.150;2023-02-15T04:58:39;1.80;99.90
30206;DHT22;17010;51.306;3.150;2023-02-15T05:01:08;1.80;99.90
30206;DHT22;17010;51.306;3.150;2023-02-15T05:03:34;1.80;99.90
30206;DHT22;17010;51.306;3.150;2023-02-15T05:06:01;1.80;99.90
30206;DHT22;17010;51.306;3.150;2023-02-15T05:08:27;1.80;99.90
30206;DHT22;17010;51.306;3.150;2023-02-15T05:10:53;1.70;99.90
30206;DHT22;17010;51.306;3.150;2023-02-15T05:13:19;1.80;99.90
30206;DHT22;17010;51.306;3.150;2023-02-15T05:15:49;1.70;99.90
30206;DHT22;17010;51.306;3.150;2023-02-15T05:18:17;1.80;99.90
30206;DHT22;17010;51.306;3.150;2023-02-15T05:20:43;1.80;99.90
30206;DHT22;17010;51.306;3.150;2023-02-15T05:23:10;1.80;99.90
30206;DHT22;17010;51.306;3.150;2023-02-15T05:25:36;1.70;99.90
30206;DHT22;17010;51.306;3.150;2023-02-15T05:28:22;1.70;99.90
30206;DHT22;17010;51.306;3.150;2023-02-15T05:30:49;1.70;99.90
30206;DHT22;17010;51.306;3.150;2023-02-15T05:33:16;1.60;99.90
30206;DHT22;17010;51.306;3.150;2023-02-15T05:35:43;1.60;99.90
30206;DHT22;17010;51.306;3.150;2023-02-15T05:38:09;1.60;99.90
30206;DHT22;17010;51.306;3.150;2023-02-15T05:40:35;1.60;99.90
30206;DHT22;17010;51.306;3.150;2023-02-15T05:43:01;1.50;99.90
30206;DHT22;17010;51.306;3.150;2023-02-15T05:45:27;1.60;99.90
30206;DHT22;17010;51.306;3.150;2023-02-15T05:47:54;1.60;99.90
30206;DHT22;17010;51.306;3.150;2023-02-15T05:50:20;1.50;99.90
30206;DHT22;17010;51.306;3.150;2023-02-15T05:52:46;1.50;99.90
30206;DHT22;17010;51.306;3.150;2023-02-15T05:55:13;1.50;99.90
30206;DHT22;17010;51.306;3.150;2023-02-15T05:57:39;1.50;99.90
30206;DHT22;17010;51.306;3.150;2023-02-15T06:00:05;1.50;99.90
30206;DHT22;17010;51.306;3.150;2023-02-15T06:02:35;1.50;99.90
30206;DHT22;17010;51.306;3.150;2023-02-15T06:05:02;1.50;99.90
30206;DHT22;17010;51.306;3.150;2023-02-15T06:07:29;1.50;99.90
30206;DHT22;17010;51.306;3.150;2023-02-15T06:09:55;1.50;99.90
30206;DHT22;17010;51.306;3.150;2023-02-15T06:12:21;1.50;99.90
30206;DHT22;17010;51.306;3.150;2023-02-15T06:14:47;1.50;99.90
30206;DHT22;17010;51.306;3.150;2023-02-15T06:17:13;1.50;99.90
30206;DHT22;17010;51.306;3.150;2023-02-15T06:19:39;1.50;99.90
30206;DHT22;17010;51.306;3.150;2023-02-15T06:22:05;1.50;99.90
30206;DHT22;17010;51.306;3.150;2023-02-15T06:24:32;1.40;99.90
30206;DHT22;17010;51.306;3.150;2023-02-15T06:26:58;1.40;99.90
30206;DHT22;17010;51.306;3.150;2023-02-15T06:29:24;1.40;99.90
30206;DHT22;17010;51.306;3.150;2023-02-15T06:31:50;1.30;99.90
30206;DHT22;17010;51.306;3.150;2023-02-15T06:34:16;1.30;99.90
30206;DHT22;17010;51.306;3.150;2023-02-15T06:36:43;1.30;99.90
30206;DHT22;17010;51.306;3.150;2023-02-15T06:39:09;1.30;99.90
30206;DHT22;17010;51.306;3.150;2023-02-15T06:41:35;1.30;99.90
30206;DHT22;17010;51.306;3.150;2023-02-15T06:44:01;1.30;99.90
30206;DHT22;17010;51.306;3.150;2023-02-15T06:46:27;1.20;99.90
30206;DHT22;17010;51.306;3.150;2023-02-15T06:48:53;1.30;99.90
30206;DHT22;17010;51.306;3.150;2023-02-15T06:51:20;1.20;99.90
30206;DHT22;17010;51.306;3.150;2023-02-15T06:53:46;1.20;99.90
30206;DHT22;17010;51.306;3.150;2023-02-15T06:56:12;1.20;99.90
30206;DHT22;17010;51.306;3.150;2023-02-15T06:58:39;1.20;99.90
30206;DHT22;17010;51.306;3.150;2023-02-15T07:01:06;1.20;99.90
30206;DHT22;17010;51.306;3.150;2023-02-15T07:03:32;1.30;99.90
30206;DHT22;17010;51.306;3.150;2023-02-15T07:06:00;1.30;99.90
30206;DHT22;17010;51.306;3.150;2023-02-15T07:08:27;1.40;99.90
30206;DHT22;17010;51.306;3.150;2023-02-15T07:10:54;1.40;99.90
30206;DHT22;17010;51.306;3.150;2023-02-15T07:13:41;1.50;99.90
30206;DHT22;17010;51.306;3.150;2023-02-15T07:16:08;1.50;99.90
30206;DHT22;17010;51.306;3.150;2023-02-15T07:18:35;1.50;99.90
30206;DHT22;17010;51.306;3.150;2023-02-15T07:21:01;1.60;99.90
30206;DHT22;17010;51.306;3.150;2023-02-15T07:23:28;1.70;99.90
30206;DHT22;17010;51.306;3.150;2023-02-15T07:25:58;1.80;99.90
30206;DHT22;17010;51.306;3.150;2023-02-15T07:28:24;1.90;99.90
30206;DHT22;17010;51.306;3.150;2023-02-15T07:30:50;2.10;99.90
30206;DHT22;17010;51.306;3.150;2023-02-15T07:33:17;2.20;99.90
30206;DHT22;17010;51.306;3.150;2023-02-15T07:35:55;2.30;99.90
30206;DHT22;17010;51.306;3.150;2023-02-15T07:38:23;2.40;99.90
30206;DHT22;17010;51.306;3.150;2023-02-15T07:40:49;2.50;99.90
30206;DHT22;17010;51.306;3.150;2023-02-15T07:43:16;2.60;99.90
30206;DHT22;17010;51.306;3.150;2023-02-15T07:45:42;2.70;99.90
30206;DHT22;17010;51.306;3.150;2023-02-15T07:48:08;2.70;99.90
30206;DHT22;17010;51.306;3.150;2023-02-15T07:50:35;2.80;99.90
30206;DHT22;17010;51.306;3.150;2023-02-15T07:53:02;3.00;99.90
30206;DHT22;17010;51.306;3.150;2023-02-15T07:55:28;3.20;99.90
30206;DHT22;17010;51.306;3.150;2023-02-15T07:57:54;3.40;99.90
30206;DHT22;17010;51.306;3.150;2023-02-15T08:00:21;3.60;99.90
30206;DHT22;17010;51.306;3.150;2023-02-15T08:02:51;3.70;99.90
30206;DHT22;17010;51.306;3.150;2023-02-15T08:05:38;3.90;99.90
30206;DHT22;17010;51.306;3.150;2023-02-15T08:08:05;4.20;99.90
30206;DHT22;17010;51.306;3.150;2023-02-15T08:10:31;4.30;99.90
30206;DHT22;17010;51.306;3.150;2023-02-15T08:13:15;4.50;99.90
30206;DHT22;17010;51.306;3.150;2023-02-15T08:15:51;4.70;99.90
30206;DHT22;17010;51.306;3.150;2023-02-15T08:18:17;4.80;99.90
30206;DHT22;17010;51.306;3.150;2023-02-15T08:20:48;4.90;99.90
30206;DHT22;17010;51.306;3.150;2023-02-15T08:23:14;5.00;99.90
30206;DHT22;17010;51.306;3.150;2023-02-15T08:25:40;5.10;99.90
30206;DHT22;17010;51.306;3.150;2023-02-15T08:28:06;5.20;99.90
30206;DHT22;17010;51.306;3.150;2023-02-15T08:30:32;5.30;99.90
30206;DHT22;17010;51.306;3.150;2023-02-15T08:32:58;5.40;99.90
30206;DHT22;17010;51.306;3.150;2023-02-15T08:35:25;5.50;99.90
30206;DHT22;17010;51.306;3.150;2023-02-15T08:37:51;5.60;99.90
30206;DHT22;17010;51.306;3.150;2023-02-15T08:40:17;5.70;99.90
30206;DHT22;17010;51.306;3.150;2023-02-15T08:42:43;5.80;99.90
30206;DHT22;17010;51.306;3.150;2023-02-15T08:45:09;5.80;99.90
30206;DHT22;17010;51.306;3.150;2023-02-15T08:47:35;5.80;99.90
30206;DHT22;17010;51.306;3.150;2023-02-15T08:50:02;5.80;99.90
30206;DHT22;17010;51.306;3.150;2023-02-15T08:52:28;5.90;99.90
30206;DHT22;17010;51.306;3.150;2023-02-15T08:54:54;5.90;99.90
30206;DHT22;17010;51.306;3.150;2023-02-15T08:57:21;6.00;99.90
30206;DHT22;17010;51.306;3.150;2023-02-15T08:59:47;6.00;99.90
30206;DHT22;17010;51.306;3.150;2023-02-15T09:02:14;6.10;99.90
30206;DHT22;17010;51.306;3.150;2023-02-15T09:04:40;6.10;99.90
30206;DHT22;17010;51.306;3.150;2023-02-15T09:07:06;6.20;99.90
30206;DHT22;17010;51.306;3.150;2023-02-15T09:09:33;6.30;99.90
30206;DHT22;17010;51.306;3.150;2023-02-15T09:11:59;6.40;99.90
30206;DHT22;17010;51.306;3.150;2023-02-15T09:14:26;6.50;99.90
30206;DHT22;17010;51.306;3.150;2023-02-15T09:16:52;6.60;99.90
30206;DHT22;17010;51.306;3.150;2023-02-15T09:19:20;6.70;99.90
30206;DHT22;17010;51.306;3.150;2023-02-15T09:21:49;6.80;99.90
30206;DHT22;17010;51.306;3.150;2023-02-15T09:24:16;6.90;99.90
30206;DHT22;17010;51.306;3.150;2023-02-15T09:26:44;7.10;99.90
30206;DHT22;17010;51.306;3.150;2023-02-15T09:29:12;7.20;99.90
30206;DHT22;17010;51.306;3.150;2023-02-15T09:31:44;7.40;99.90
30206;DHT22;17010;51.306;3.150;2023-02-15T09:34:15;7.60;99.90
30206;DHT22;17010;51.306;3.150;2023-02-15T09:36:42;7.60;99.90
30206;DHT22;17010;51.306;3.150;2023-02-15T10:14:47;9.50;99.90
30206;DHT22;17010;51.306;3.150;2023-02-15T10:28:26;10.10;99.90
30206;DHT22;17010;51.306;3.150;2023-02-15T10:31:24;10.30;99.90
30206;DHT22;17010;51.306;3.150;2023-02-15T10:33:56;10.40;99.90
30206;DHT22;17010;51.306;3.150;2023-02-15T10:37:01;10.50;99.90
30206;DHT22;17010;51.306;3.150;2023-02-15T10:39:26;10.60;99.90
30206;DHT22;17010;51.306;3.150;2023-02-15T10:42:25;10.70;99.90
30206;DHT22;17010;51.306;3.150;2023-02-15T10:50:36;10.90;99.90
30206;DHT22;17010;51.306;3.150;2023-02-15T11:03:50;11.10;99.90
30206;DHT22;17010;51.306;3.150;2023-02-15T11:06:19;11.10;99.90
30206;DHT22;17010;51.306;3.150;2023-02-15T11:08:55;11.10;99.90
30206;DHT22;17010;51.306;3.150;2023-02-15T11:11:29;11.10;99.90
30206;DHT22;17010;51.306;3.150;2023-02-15T11:14:05;11.20;99.90
30206;DHT22;17010;51.306;3.150;2023-02-15T11:16:44;11.30;99.90
30206;DHT22;17010;51.306;3.150;2023-02-15T11:19:34;11.30;99.90
30206;DHT22;17010;51.306;3.150;2023-02-15T11:22:00;11.30;99.90
30206;DHT22;17010;51.306;3.150;2023-02-15T11:24:28;11.30;99.90
30206;DHT22;17010;51.306;3.150;2023-02-15T11:27:24;11.40;99.90
30206;DHT22;17010;51.306;3.150;2023-02-15T11:32:31;11.50;99.90
30206;DHT22;17010;51.306;3.150;2023-02-15T11:35:03;11.40;99.90
30206;DHT22;17010;51.306;3.150;2023-02-15T11:37:48;11.50;99.90
30206;DHT22;17010;51.306;3.150;2023-02-15T11:42:48;11.30;99.90
30206;DHT22;17010;51.306;3.150;2023-02-15T11:45:29;11.40;99.90
30206;DHT22;17010;51.306;3.150;2023-02-15T11:47:57;11.40;99.90
30206;DHT22;17010;51.306;3.150;2023-02-15T11:50:29;11.40;99.90
30206;DHT22;17010;51.306;3.150;2023-02-15T11:53:01;11.40;99.90
30206;DHT22;17010;51.306;3.150;2023-02-15T11:55:28;11.30;99.90
30206;DHT22;17010;51.306;3.150;2023-02-15T12:00:39;11.30;99.90
30206;DHT22;17010;51.306;3.150;2023-02-15T12:03:36;11.40;99.90
30206;DHT22;17010;51.306;3.150;2023-02-15T12:06:05;11.50;99.90
30206;DHT22;17010;51.306;3.150;2023-02-15T12:08:38;11.40;99.90
30206;DHT22;17010;51.306;3.150;2023-02-15T12:11:08;11.40;99.90
30206;DHT22;17010;51.306;3.150;2023-02-15T12:14:00;11.40;99.90
30206;DHT22;17010;51.306;3.150;2023-02-15T12:16:29;11.40;99.90
30206;DHT22;17010;51.306;3.150;2023-02-15T12:18:59;11.30;99.90
30206;DHT22;17010;51.306;3.150;2023-02-15T12:21:34;11.30;99.90
30206;DHT22;17010;51.306;3.150;2023-02-15T12:24:18;11.40;99.90
30206;DHT22;17010;51.306;3.150;2023-02-15T12:26:44;11.40;99.90
30206;DHT22;17010;51.306;3.150;2023-02-15T12:29:22;11.50;99.90
30206;DHT22;17010;51.306;3.150;2023-02-15T12:31:50;11.50;99.90
30206;DHT22;17010;51.306;3.150;2023-02-15T12:34:23;11.50;99.90
30206;DHT22;17010;51.306;3.150;2023-02-15T12:36:55;11.60;99.90
30206;DHT22;17010;51.306;3.150;2023-02-15T12:39:28;11.60;99.90
30206;DHT22;17010;51.306;3.150;2023-02-15T12:44:26;11.70;99.90
30206;DHT22;17010;51.306;3.150;2023-02-15T12:49:27;11.70;99.90
30206;DHT22;17010;51.306;3.150;2023-02-15T12:52:02;11.80;99.90
30206;DHT22;17010;51.306;3.150;2023-02-15T12:54:40;11.90;99.90
30206;DHT22;17010;51.306;3.150;2023-02-15T12:59:55;11.90;99.90
30206;DHT22;17010;51.306;3.150;2023-02-15T13:07:49;12.10;99.90
30206;DHT22;17010;51.306;3.150;2023-02-15T13:13:34;12.30;99.90
30206;DHT22;17010;51.306;3.150;2023-02-15T13:16:03;12.40;99.90
30206;DHT22;17010;51.306;3.150;2023-02-15T13:18:35;12.50;99.90
30206;DHT22;17010;51.306;3.150;2023-02-15T13:21:26;12.60;99.90
30206;DHT22;17010;51.306;3.150;2023-02-15T13:23:57;12.70;99.90
30206;DHT22;17010;51.306;3.150;2023-02-15T13:26:26;12.70;99.90
30206;DHT22;17010;51.306;3.150;2023-02-15T13:28:57;12.80;99.90
30206;DHT22;17010;51.306;3.150;2023-02-15T13:31:26;12.80;99.90
30206;DHT22;17010;51.306;3.150;2023-02-15T13:34:11;12.90;99.90
30206;DHT22;17010;51.306;3.150;2023-02-15T13:42:03;13.10;99.90
30206;DHT22;17010;51.306;3.150;2023-02-15T13:47:25;13.10;99.90
30206;DHT22;17010;51.306;3.150;2023-02-15T13:52:53;13.20;99.90
30206;DHT22;17010;51.306;3.150;2023-02-15T14:00:54;13.40;99.90
30206;DHT22;17010;51.306;3.150;2023-02-15T14:14:29;13.90;99.90
30206;DHT22;17010;51.306;3.150;2023-02-15T14:20:07;14.00;99.90
30206;DHT22;17010;51.306;3.150;2023-02-15T14:22:40;14.00;99.90
30206;DHT22;17010;51.306;3.150;2023-02-15T14:25:57;14.00;99.90
30206;DHT22;17010;51.306;3.150;2023-02-15T14:31:02;14.00;99.90
30206;DHT22;17010;51.306;3.150;2023-02-15T14:33:39;13.90;99.90
30206;DHT22;17010;51.306;3.150;2023-02-15T14:36:07;13.90;99.90
30206;DHT22;17010;51.306;3.150;2023-02-15T14:41:29;13.80;99.90
30206;DHT22;17010;51.306;3.150;2023-02-15T14:44:13;13.70;99.90
30206;DHT22;17010;51.306;3.150;2023-02-15T14:49:37;13.50;99.90
30206;DHT22;17010;51.306;3.150;2023-02-15T14:52:05;13.40;99.90
30206;DHT22;17010;51.306;3.150;2023-02-15T15:02:21;13.20;99.90
30206;DHT22;17010;51.306;3.150;2023-02-15T15:07:22;13.00;99.90
30206;DHT22;17010;51.306;3.150;2023-02-15T15:12:50;12.90;99.90
30206;DHT22;17010;51.306;3.150;2023-02-15T15:18:04;12.90;99.90
30206;DHT22;17010;51.306;3.150;2023-02-15T15:20:44;12.80;99.90
30206;DHT22;17010;51.306;3.150;2023-02-15T15:26:44;12.70;99.90
30206;DHT22;17010;51.306;3.150;2023-02-15T15:28:53;12.70;99.90
30206;DHT22;17010;51.306;3.150;2023-02-15T15:40:18;12.60;99.90
30206;DHT22;17010;51.306;3.150;2023-02-15T15:45:48;12.40;99.90
30206;DHT22;17010;51.306;3.150;2023-02-15T15:48:26;12.40;99.90
30206;DHT22;17010;51.306;3.150;2023-02-15T15:50:56;12.40;99.90
30206;DHT22;17010;51.306;3.150;2023-02-15T15:53:25;12.40;99.90
30206;DHT22;17010;51.306;3.150;2023-02-15T15:55:55;12.40;99.90
30206;DHT22;17010;51.306;3.150;2023-02-15T15:58:23;12.40;99.90
30206;DHT22;17010;51.306;3.150;2023-02-15T16:01:03;12.30;99.90
30206;DHT22;17010;51.306;3.150;2023-02-15T16:03:30;12.30;99.90
30206;DHT22;17010;51.306;3.150;2023-02-15T16:05:56;12.20;99.90
30206;DHT22;17010;51.306;3.150;2023-02-15T16:08:36;12.20;99.90
30206;DHT22;17010;51.306;3.150;2023-02-15T16:11:25;12.20;99.90
30206;DHT22;17010;51.306;3.150;2023-02-15T16:13:52;12.30;99.90
30206;DHT22;17010;51.306;3.150;2023-02-15T16:16:27;12.20;99.90
30206;DHT22;17010;51.306;3.150;2023-02-15T16:18:57;12.20;99.90
30206;DHT22;17010;51.306;3.150;2023-02-15T16:21:34;12.20;99.90
30206;DHT22;17010;51.306;3.150;2023-02-15T16:24:29;12.20;99.90
30206;DHT22;17010;51.306;3.150;2023-02-15T16:29:44;12.00;99.90
30206;DHT22;17010;51.306;3.150;2023-02-15T16:32:22;12.00;99.90
30206;DHT22;17010;51.306;3.150;2023-02-15T16:35:02;12.00;99.90
30206;DHT22;17010;51.306;3.150;2023-02-15T16:37:33;11.90;99.90
30206;DHT22;17010;51.306;3.150;2023-02-15T16:39:59;11.80;99.90
30206;DHT22;17010;51.306;3.150;2023-02-15T16:42:26;11.70;99.90
30206;DHT22;17010;51.306;3.150;2023-02-15T16:45:07;11.60;99.90
30206;DHT22;17010;51.306;3.150;2023-02-15T16:47:38;11.50;99.90
30206;DHT22;17010;51.306;3.150;2023-02-15T16:50:07;11.40;99.90
30206;DHT22;17010;51.306;3.150;2023-02-15T16:52:42;11.30;99.90
30206;DHT22;17010;51.306;3.150;2023-02-15T16:55:25;11.20;99.90
30206;DHT22;17010;51.306;3.150;2023-02-15T16:57:54;11.10;99.90
30206;DHT22;17010;51.306;3.150;2023-02-15T17:00:22;11.00;99.90
30206;DHT22;17010;51.306;3.150;2023-02-15T17:02:58;10.90;99.90
30206;DHT22;17010;51.306;3.150;2023-02-15T17:05:25;10.80;99.90
30206;DHT22;17010;51.306;3.150;2023-02-15T17:08:18;10.70;99.90
30206;DHT22;17010;51.306;3.150;2023-02-15T17:11:08;10.60;99.90
30206;DHT22;17010;51.306;3.150;2023-02-15T17:13:35;10.50;99.90
30206;DHT22;17010;51.306;3.150;2023-02-15T17:18:43;10.30;99.90
30206;DHT22;17010;51.306;3.150;2023-02-15T17:21:12;10.20;99.90
30206;DHT22;17010;51.306;3.150;2023-02-15T17:23:45;10.10;99.90
30206;DHT22;17010;51.306;3.150;2023-02-15T17:26:21;10.00;99.90
30206;DHT22;17010;51.306;3.150;2023-02-15T17:28:53;9.90;99.90
30206;DHT22;17010;51.306;3.150;2023-02-15T17:31:20;9.90;99.90
30206;DHT22;17010;51.306;3.150;2023-02-15T17:33:47;9.80;99.90
30206;DHT22;17010;51.306;3.150;2023-02-15T17:36:21;9.70;99.90
30206;DHT22;17010;51.306;3.150;2023-02-15T17:39:03;9.60;99.90
30206;DHT22;17010;51.306;3.150;2023-02-15T17:41:34;9.60;99.90
30206;DHT22;17010;51.306;3.150;2023-02-15T17:44:02;9.50;99.90
30206;DHT22;17010;51.306;3.150;2023-02-15T17:46:33;9.40;99.90
30206;DHT22;17010;51.306;3.150;2023-02-15T17:49:03;9.30;99.90
30206;DHT22;17010;51.306;3.150;2023-02-15T17:51:30;9.20;99.90
30206;DHT22;17010;51.306;3.150;2023-02-15T17:53:57;9.20;99.90
30206;DHT22;17010;51.306;3.150;2023-02-15T17:56:58;9.10;99.90
30206;DHT22;17010;51.306;3.150;2023-02-15T17:59:30;9.00;99.90
30206;DHT22;17010;51.306;3.150;2023-02-15T18:01:56;9.00;99.90
30206;DHT22;17010;51.306;3.150;2023-02-15T18:04:41;8.90;99.90
30206;DHT22;17010;51.306;3.150;2023-02-15T18:07:26;8.80;99.90
30206;DHT22;17010;51.306;3.150;2023-02-15T18:10:15;8.80;99.90
30206;DHT22;17010;51.306;3.150;2023-02-15T18:13:00;8.70;99.90
30206;DHT22;17010;51.306;3.150;2023-02-15T18:15:26;8.60;99.90
30206;DHT22;17010;51.306;3.150;2023-02-15T18:17:53;8.60;99.90
30206;DHT22;17010;51.306;3.150;2023-02-15T18:20:31;8.50;99.90
30206;DHT22;17010;51.306;3.150;2023-02-15T18:22:57;8.50;99.90
30206;DHT22;17010;51.306;3.150;2023-02-15T18:25:24;8.40;99.90
30206;DHT22;17010;51.306;3.150;2023-02-15T18:27:50;8.40;99.90
30206;DHT22;17010;51.306;3.150;2023-02-15T18:30:19;8.40;99.90
30206;DHT22;17010;51.306;3.150;2023-02-15T18:32:47;8.30;99.90
30206;DHT22;17010;51.306;3.150;2023-02-15T18:35:21;8.30;99.90
30206;DHT22;17010;51.306;3.150;2023-02-15T18:37:47;8.30;99.90
30206;DHT22;17010;51.306;3.150;2023-02-15T18:40:19;8.20;99.90
30206;DHT22;17010;51.306;3.150;2023-02-15T18:42:45;8.20;99.90
30206;DHT22;17010;51.306;3.150;2023-02-15T18:47:46;8.10;99.90
30206;DHT22;17010;51.306;3.150;2023-02-15T18:50:14;8.10;99.90
30206;DHT22;17010;51.306;3.150;2023-02-15T18:52:40;8.10;99.90
30206;DHT22;17010;51.306;3.150;2023-02-15T18:55:20;8.00;99.90
30206;DHT22;17010;51.306;3.150;2023-02-15T18:57:49;8.00;99.90
30206;DHT22;17010;51.306;3.150;2023-02-15T19:00:21;7.90;99.90
30206;DHT22;17010;51.306;3.150;2023-02-15T19:02:47;7.90;99.90
30206;DHT22;17010;51.306;3.150;2023-02-15T19:05:14;7.80;99.90
30206;DHT22;17010;51.306;3.150;2023-02-15T19:07:41;7.80;99.90
30206;DHT22;17010;51.306;3.150;2023-02-15T19:10:22;7.70;99.90
30206;DHT22;17010;51.306;3.150;2023-02-15T19:12:49;7.70;99.90
30206;DHT22;17010;51.306;3.150;2023-02-15T19:15:19;7.70;99.90
30206;DHT22;17010;51.306;3.150;2023-02-15T19:17:45;7.60;99.90
30206;DHT22;17010;51.306;3.150;2023-02-15T19:20:26;7.60;99.90
30206;DHT22;17010;51.306;3.150;2023-02-15T19:22:52;7.60;99.90
30206;DHT22;17010;51.306;3.150;2023-02-15T19:25:28;7.50;99.90